NORTHEAST SUFFOLK  -  Special Weather Statement Special Weather Statement        NORTHERN NASSAU  -  Special Weather Statement Special Weather Statement        NORTHWEST SUFFOLK  -  Special Weather Statement Special Weather Statement        SOUTHEAST SUFFOLK  -  Special Weather Statement Special Weather Statement        SOUTHERN NASSAU  -  Special Weather Statement Special Weather Statement        SOUTHWEST SUFFOLK  -  Special Weather Statement Special Weather Statement      

Active alerts

Northern Nassau
  Details for Northern Nassau Special Weather Statement
Southern Nassau
  Details for Southern Nassau Special Weather Statement
Northwest Suffolk
  Details for Northwest Suffolk Special Weather Statement
Southwest Suffolk
  Details for Southwest Suffolk Special Weather Statement
Northeast Suffolk
  Details for Northeast Suffolk Special Weather Statement
Southeast Suffolk
  Details for Southeast Suffolk Special Weather Statement


WXM80 ListenWXM80 Stop

You find our weather info also at:

UK Metoffice

WeatherCloud

Weather Underground

Northeastern Weather Network

AWEKAS

Citizen Weather Observer Program (CWOP)

HAMweather, WeatherForYou, PWS Weather


Weather Underground History page Text

Daily Summary for May 13, 2017 Units:  Metric    English   Both
« Previous Day
Next Day »
Daily Weekly Monthly Yearly Custom
  High: Low: Average:
Temperature: 11.2 °C 7.6 °C 9.7 °C
Dew Point: 10.3 °C 7.2 °C 8.6 °C
Humidity: 97 % 83 % 93 %
Wind Speed: 25.1 km/h 0 km/h 7.2 km/h
Wind Gust: 44.4 km/h - -
Wind:- - East
Pressure: 1015.5 hPa 1006.7 hPa -
Precipitation: 29.46 mm    
Historical Graphs
 
 
Tabular Data for May 13, 2017
Time Temperature Dew Point Pressure Wind Wind Speed Wind Gust Humidity Rainfall Rate (Hourly)
00:04 11.2 °C 8.6 °C 1015.5 hPa SE 0.2 km/h 3.7 km/h 84 % 0 mm
00:10 11.2 °C 8.6 °C 1015.5 hPa SSE 1.4 km/h 5.6 km/h 84 % 0 mm
00:15 11.2 °C 8.4 °C 1015.5 hPa SSE 1 km/h 5.6 km/h 83 % 0 mm
00:20 11.2 °C 8.4 °C 1015.5 hPa SSE 1.3 km/h 4.8 km/h 83 % 0 mm
00:25 11.2 °C 8.4 °C 1015.5 hPa SE 3.7 km/h 9.3 km/h 83 % 0 mm
00:30 11.2 °C 8.4 °C 1015.5 hPa SE 1.9 km/h 9.3 km/h 83 % 0 mm
00:35 11.2 °C 8.4 °C 1015.5 hPa Calm   1.9 km/h 83 % 0 mm
00:40 11.2 °C 8.4 °C 1015.5 hPa SE 0.5 km/h 3.7 km/h 83 % 0 mm
00:45 11.2 °C 8.4 °C 1015.5 hPa SE 0.8 km/h 3.7 km/h 83 % 0 mm
00:50 11.1 °C 8.5 °C 1015.1 hPa SSE 2.1 km/h 6.4 km/h 84 % 0 mm
00:55 11.1 °C 8.3 °C 1015.1 hPa SE 0.5 km/h 5.6 km/h 83 % 0 mm
01:00 11.1 °C 8.3 °C 1015.1 hPa SE 0.2 km/h 5.6 km/h 83 % 0 mm
01:05 11.1 °C 8.3 °C 1015.1 hPa Calm     83 % 0 mm
01:10 11.1 °C 8.3 °C 1015.1 hPa Calm   1.9 km/h 83 % 0 mm
01:15 11.1 °C 8.4 °C 1014.8 hPa Calm     84 % 0 mm
01:20 11.1 °C 8.4 °C 1014.8 hPa SSE 3.9 km/h 5.6 km/h 84 % 0 mm
01:25 11.1 °C 8.4 °C 1014.8 hPa Calm     84 % 0 mm
01:30 11 °C 8.4 °C 1014.8 hPa SSE 0.5 km/h 1.9 km/h 84 % 0 mm
01:35 11 °C 8.2 °C 1014.8 hPa SSE 2.9 km/h 5.6 km/h 83 % 0 mm
01:40 11 °C 8.2 °C 1014.8 hPa Calm   1.9 km/h 83 % 0 mm
01:45 11 °C 8.2 °C 1014.4 hPa Calm     83 % 0 mm
01:50 11 °C 8.2 °C 1014.4 hPa SE 0.5 km/h 3.7 km/h 83 % 0 mm
01:55 10.9 °C 8.2 °C 1014.4 hPa Calm   7.4 km/h 83 % 0 mm
02:00 10.9 °C 8.3 °C 1014.1 hPa SE 0.2 km/h 1.9 km/h 84 % 0 mm
02:06 10.9 °C 8.3 °C 1014.4 hPa SE 3.2 km/h 9.7 km/h 84 % 0 mm
02:11 10.9 °C 8.1 °C 1014.1 hPa Calm   4.8 km/h 83 % 0 mm
02:16 10.9 °C 8.1 °C 1014.1 hPa Calm   3.7 km/h 83 % 0 mm
02:21 10.9 °C 8.1 °C 1014.4 hPa Calm   1.9 km/h 83 % 0 mm
02:26 10.9 °C 8.1 °C 1014.4 hPa Calm   5.6 km/h 83 % 0 mm
02:31 10.8 °C 8.1 °C 1014.1 hPa Calm     83 % 0 mm
02:36 10.8 °C 8.1 °C 1014.1 hPa Calm     83 % 0 mm
02:41 10.8 °C 8.2 °C 1014.1 hPa Calm     84 % 0 mm
02:46 10.8 °C 8.2 °C 1014.1 hPa Calm   1.6 km/h 84 % 0 mm
02:51 10.8 °C 8 °C 1014.1 hPa Calm   1.9 km/h 83 % 0 mm
02:54 10.8 °C 8.2 °C 1014.1 hPa Calm     84 % 0 mm
02:59 10.8 °C 8.2 °C 1014.1 hPa Calm     84 % 0 mm
03:04 10.8 °C 8 °C 1014.1 hPa Calm   1.9 km/h 83 % 0 mm
03:09 10.8 °C 8.2 °C 1014.1 hPa Calm     84 % 0 mm
03:14 10.8 °C 8.2 °C 1014.1 hPa SSE 2.1 km/h 3.7 km/h 84 % 0 mm
03:19 10.8 °C 8.2 °C 1014.1 hPa SSE 1.3 km/h 3.7 km/h 84 % 0 mm
03:24 10.8 °C 8.2 °C 1014.1 hPa SSE 1.3 km/h 1.9 km/h 84 % 0 mm
03:29 10.8 °C 8.2 °C 1014.1 hPa SSE 0.2 km/h 1.9 km/h 84 % 0 mm
03:34 10.8 °C 8.3 °C 1014.1 hPa Calm   3.7 km/h 85 % 0 mm
03:39 10.7 °C 8.3 °C 1014.1 hPa SSE 2.3 km/h 4.8 km/h 85 % 0 mm
03:45 10.7 °C 8.3 °C 1014.1 hPa Calm     85 % 0 mm
03:50 10.7 °C 8.3 °C 1013.8 hPa Calm   3.7 km/h 85 % 0 mm
03:55 10.7 °C 8.3 °C 1014.1 hPa SSE 0.6 km/h 3.7 km/h 85 % 0 mm
04:00 10.7 °C 8.2 °C 1013.8 hPa SSE 0.5 km/h 3.7 km/h 85 % 0 mm
04:05 10.7 °C 8.2 °C 1013.8 hPa Calm   1.9 km/h 85 % 0 mm
04:10 10.7 °C 8.2 °C 1013.8 hPa SSE 0.3 km/h 1.9 km/h 85 % 0 mm
04:15 10.7 °C 8.2 °C 1013.8 hPa SSE 2.6 km/h 7.4 km/h 85 % 0 mm
04:20 10.7 °C 8.2 °C 1013.8 hPa SSE 2.1 km/h 5.6 km/h 85 % 0 mm
04:25 10.7 °C 8.2 °C 1013.8 hPa SSE 1.8 km/h 6.4 km/h 85 % 0 mm
04:30 10.6 °C 8.2 °C 1013.8 hPa SE 2.7 km/h 5.6 km/h 85 % 0 mm
04:35 10.6 °C 8.2 °C 1013.8 hPa Calm   1.9 km/h 85 % 0 mm
04:40 10.6 °C 8.1 °C 1013.8 hPa SSE 1.6 km/h 5.6 km/h 85 % 0 mm
04:45 10.6 °C 8.1 °C 1013.4 hPa Calm   1.9 km/h 85 % 0 mm
04:50 10.5 °C 8.1 °C 1013.4 hPa SE 1.4 km/h 3.7 km/h 85 % 0 mm
04:55 10.5 °C 8.1 °C 1013.4 hPa SE 0.5 km/h 1.9 km/h 85 % 0 mm
05:00 10.4 °C 8.1 °C 1013.4 hPa Calm   1.9 km/h 85 % 0 mm
05:05 10.4 °C 8.2 °C 1013.4 hPa Calm   1.9 km/h 86 % 0 mm
05:10 10.4 °C 8.2 °C 1013.4 hPa SE 0.6 km/h 3.7 km/h 86 % 0 mm
05:15 10.4 °C 8.2 °C 1013.4 hPa SE 0.2 km/h 1.9 km/h 86 % 0 mm
05:20 10.4 °C 8.2 °C 1013.4 hPa Calm     86 % 0 mm
05:25 10.3 °C 8.1 °C 1013.4 hPa SE 0.8 km/h 3.7 km/h 86 % 0 mm
05:30 10.3 °C 8.2 °C 1013.4 hPa Calm     87 % 0 mm
05:35 10.3 °C 8.2 °C 1013.4 hPa Calm     87 % 0 mm
05:40 10.2 °C 8.3 °C 1013.4 hPa SE 0.5 km/h 1.9 km/h 88 % 0 mm
05:45 10.2 °C 8.3 °C 1013.4 hPa Calm   1.9 km/h 88 % 0 mm
05:50 10.2 °C 8.5 °C 1013.4 hPa SE 1 km/h 3.7 km/h 89 % 0 mm
05:55 10.2 °C 8.4 °C 1013.4 hPa SE 0.3 km/h 1.9 km/h 89 % 0 mm
06:00 10.2 °C 8.4 °C 1013.1 hPa SE 0.2 km/h 1.9 km/h 89 % 0 mm
06:05 10.1 °C 8.4 °C 1013.4 hPa SE 0.5 km/h 3.7 km/h 89 % 0 mm
06:10 10.1 °C 8.3 °C 1013.4 hPa SE 0.2 km/h 1.9 km/h 89 % 0 mm
06:15 10.1 °C 8.2 °C 1013.4 hPa SE 0.8 km/h 1.9 km/h 88 % 0 mm
06:20 10.1 °C 8.3 °C 1013.1 hPa SE 0.3 km/h 1.9 km/h 89 % 0 mm
06:25 10.1 °C 8.3 °C 1013.1 hPa SE 1.4 km/h 3.2 km/h 89 % 0 mm
06:30 10 °C 8.3 °C 1013.1 hPa SE 1.6 km/h 3.7 km/h 89 % 0 mm
06:35 10 °C 8.3 °C 1013.1 hPa SE 1.6 km/h 3.7 km/h 89 % 0 mm
06:40 10 °C 8.4 °C 1013.1 hPa SE 1.8 km/h 3.7 km/h 90 % 0 mm
06:46 9.9 °C 8.4 °C 1013.1 hPa SE 0.8 km/h 5.6 km/h 90 % 0 mm
06:51 9.9 °C 8.4 °C 1013.1 hPa Calm   1.6 km/h 90 % 0 mm
06:56 9.9 °C 8.6 °C 1013.1 hPa Calm   3.2 km/h 91 % 0 mm
07:01 10 °C 8.6 °C 1013.1 hPa SE 0.2 km/h 1.9 km/h 91 % 0 mm
07:06 9.9 °C 8.6 °C 1013.1 hPa SE 0.2 km/h 3.7 km/h 91 % 0 mm
07:11 9.9 °C 8.6 °C 1013.1 hPa SE 0.8 km/h 3.7 km/h 91 % 0 mm
07:16 9.9 °C 8.6 °C 1013.1 hPa East 1.1 km/h 3.7 km/h 91 % 0 mm
07:21 9.9 °C 8.6 °C 1012.8 hPa East 0.8 km/h 3.7 km/h 91 % 0 mm
07:26 9.9 °C 8.6 °C 1012.8 hPa East 1.4 km/h 5.6 km/h 91 % 0 mm
07:31 9.9 °C 8.6 °C 1012.8 hPa East 1.3 km/h 3.7 km/h 91 % 0 mm
07:36 10 °C 8.8 °C 1012.8 hPa East 2.9 km/h 4.8 km/h 92 % 0 mm
07:41 10 °C 8.8 °C 1012.8 hPa East 2.3 km/h 5.6 km/h 92 % 0 mm
07:46 10.1 °C 8.8 °C 1012.8 hPa East 2.3 km/h 3.7 km/h 92 % 0 mm
07:51 10.1 °C 8.8 °C 1012.8 hPa East 3.4 km/h 5.6 km/h 92 % 0.25 mm
07:56 10.1 °C 8.8 °C 1012.8 hPa East 2.6 km/h 5.6 km/h 92 % 0.25 mm
08:01 10.1 °C 8.8 °C 1012.8 hPa ESE 2.9 km/h 3.7 km/h 92 % 0.25 mm
08:06 10 °C 8.8 °C 1012.8 hPa ENE 3.5 km/h 5.6 km/h 92 % 0.25 mm
08:11 9.9 °C 8.7 °C 1012.8 hPa East 2.7 km/h 5.6 km/h 92 % 0.25 mm
08:16 9.9 °C 8.9 °C 1012.8 hPa East 2.1 km/h 4.8 km/h 93 % 0.25 mm
08:21 9.9 °C 8.8 °C 1012.8 hPa East 2.1 km/h 3.7 km/h 93 % 0.25 mm
08:26 9.9 °C 8.9 °C 1012.8 hPa East 2.4 km/h 3.7 km/h 93 % 0.51 mm
08:32 10 °C 8.9 °C 1012.8 hPa East 1.9 km/h 3.7 km/h 93 % 0.51 mm
08:33 10 °C 8.9 °C 1012.8 hPa East 2.6 km/h 4.8 km/h 93 % 0.51 mm
08:38 10 °C 8.9 °C 1012.8 hPa East 2.3 km/h 5.6 km/h 93 % 0.51 mm
08:43 10 °C 8.9 °C 1012.8 hPa East 2.4 km/h 5.6 km/h 93 % 0.51 mm
08:48 10 °C 8.9 °C 1013.1 hPa East 1.9 km/h 3.7 km/h 93 % 0.25 mm
08:53 10 °C 9.1 °C 1013.1 hPa East 1.8 km/h 3.7 km/h 94 % 0.25 mm
08:58 10 °C 9.1 °C 1013.1 hPa East 0.6 km/h 1.9 km/h 94 % 0.51 mm
09:03 10.1 °C 9.1 °C 1012.8 hPa East 1.4 km/h 3.7 km/h 94 % 0.51 mm
09:08 10.1 °C 9.1 °C 1012.8 hPa East 1.8 km/h 3.7 km/h 94 % 0.51 mm
09:13 10.1 °C 9.1 °C 1012.8 hPa East 1.8 km/h 3.7 km/h 94 % 0.76 mm
09:18 10.1 °C 9.2 °C 1012.8 hPa East 1.8 km/h 3.7 km/h 94 % 0.76 mm
09:23 10.2 °C 9.2 °C 1012.8 hPa East 2.3 km/h 3.7 km/h 94 % 0.51 mm
09:28 10.1 °C 9.2 °C 1012.8 hPa East 1.3 km/h 3.7 km/h 94 % 0.76 mm
09:33 10.2 °C 9.2 °C 1012.8 hPa East 0.6 km/h 1.9 km/h 94 % 0.76 mm
09:34 10.2 °C 9.2 °C 1012.8 hPa East 1.6 km/h 3.7 km/h 94 % 0.76 mm
09:39 10.2 °C 9.2 °C 1012.8 hPa East 1.6 km/h 3.7 km/h 94 % 1.02 mm
09:44 10.2 °C 9.2 °C 1012.8 hPa ESE 1.4 km/h 3.7 km/h 94 % 1.02 mm
09:49 10.2 °C 9.4 °C 1012.8 hPa NE 0.8 km/h 3.2 km/h 95 % 1.02 mm
09:54 10.2 °C 9.4 °C 1012.8 hPa ENE 2.4 km/h 3.7 km/h 95 % 1.02 mm
09:59 10.2 °C 9.4 °C 1012.8 hPa ENE 2.9 km/h 5.6 km/h 95 % 1.02 mm
10:04 10.3 °C 9.5 °C 1012.8 hPa ENE 2.7 km/h 5.6 km/h 95 % 1.27 mm
10:09 10.3 °C 9.6 °C 1012.8 hPa ENE 2.7 km/h 4.8 km/h 95 % 1.27 mm
10:10 10.3 °C 9.6 °C 1012.8 hPa ENE 3.7 km/h 6.4 km/h 95 % 1.02 mm
10:15 10.3 °C 9.6 °C 1012.8 hPa ENE 3.4 km/h 5.6 km/h 95 % 1.27 mm
10:20 10.3 °C 9.6 °C 1012.8 hPa ENE 3.2 km/h 5.6 km/h 95 % 1.52 mm
10:25 10.3 °C 9.6 °C 1012.8 hPa ENE 4 km/h 6.4 km/h 95 % 1.52 mm
10:30 10.3 °C 9.6 °C 1012.8 hPa ENE 3.4 km/h 6.4 km/h 95 % 1.27 mm
10:36 10.3 °C 9.6 °C 1012.8 hPa ENE 4.8 km/h 12.9 km/h 95 % 0 mm
10:41 10.3 °C 9.5 °C 1012.8 hPa ENE 3.2 km/h 8 km/h 95 % 0 mm
10:46 10.2 °C 9.4 °C 1012.8 hPa ENE 3.2 km/h 11.3 km/h 95 % 0 mm
10:51 10.2 °C 9.4 °C 1012.8 hPa ENE 4.8 km/h 8 km/h 95 % 0 mm
10:56 10.1 °C 9.3 °C 1012.4 hPa ENE 8 km/h 12.9 km/h 95 % 0 mm
11:01 10.2 °C 9.6 °C 1012.4 hPa ENE 5.1 km/h 6.4 km/h 96 % 1.52 mm
11:06 10.1 °C 9.5 °C 1012.4 hPa ENE 6.6 km/h 9.3 km/h 96 % 1.52 mm
11:11 10.1 °C 9.3 °C 1012.4 hPa ENE 4.7 km/h 7.4 km/h 95 % 1.52 mm
11:16 10.1 °C 9.5 °C 1012.4 hPa East 5.1 km/h 7.4 km/h 96 % 1.52 mm
11:18 10.2 °C 9.6 °C 1012.4 hPa East 4 km/h 7.4 km/h 96 % 1.78 mm
11:23 10.1 °C 9.5 °C 1012.4 hPa ENE 5 km/h 7.4 km/h 96 % 1.52 mm
11:28 10.1 °C 9.5 °C 1012.4 hPa East 4.7 km/h 9.3 km/h 96 % 1.52 mm
11:33 10.2 °C 9.6 °C 1012.4 hPa East 5.5 km/h 7.4 km/h 96 % 1.52 mm
11:38 10.2 °C 9.6 °C 1012.4 hPa East 5 km/h 7.4 km/h 96 % 1.52 mm
11:43 10.3 °C 9.7 °C 1012.1 hPa ENE 4 km/h 5.6 km/h 96 % 1.52 mm
11:48 10.3 °C 9.7 °C 1012.1 hPa ENE 4 km/h 7.4 km/h 96 % 1.27 mm
11:53 10.3 °C 9.7 °C 1012.1 hPa ENE 4.2 km/h 7.4 km/h 96 % 1.27 mm
11:58 10.3 °C 9.7 °C 1012.1 hPa East 5.5 km/h 8 km/h 96 % 1.02 mm
12:03 10.4 °C 9.8 °C 1012.1 hPa East 4.8 km/h 8 km/h 96 % 1.02 mm
12:08 10.6 °C 9.9 °C 1011.7 hPa ESE 5.3 km/h 11.1 km/h 96 % 1.02 mm
12:13 10.7 °C 10.3 °C 1011.7 hPa East 6.3 km/h 9.3 km/h 97 % 0.76 mm
12:18 10.8 °C 10.3 °C 1011.7 hPa East 6.1 km/h 9.7 km/h 97 % 0.51 mm
12:23 10.7 °C 10.1 °C 1011.7 hPa ENE 5.5 km/h 9.3 km/h 96 % 0.51 mm
12:28 10.7 °C 10.1 °C 1011.7 hPa East 6.3 km/h 9.7 km/h 96 % 0.51 mm
12:33 10.8 °C 10.2 °C 1011.7 hPa East 5.1 km/h 7.4 km/h 96 % 0.25 mm
12:38 10.8 °C 10.2 °C 1011.7 hPa ESE 7.4 km/h 7.4 km/h 96 % 0.25 mm
12:43 10.8 °C 10.2 °C 1011.7 hPa East 6.3 km/h 9.3 km/h 96 % 0.25 mm
12:48 10.7 °C 10.1 °C 1011.7 hPa ESE 6.3 km/h 11.1 km/h 96 % 0.25 mm
12:53 10.6 °C 10 °C 1011.7 hPa East 6.6 km/h 11.1 km/h 96 % 0.25 mm
12:58 10.6 °C 9.9 °C 1011.7 hPa East 7.1 km/h 9.7 km/h 96 % 0.25 mm
13:04 10.6 °C 9.9 °C 1011.7 hPa East 5.3 km/h 9.3 km/h 96 % 0.25 mm
13:09 10.6 °C 9.9 °C 1011.7 hPa East 6.1 km/h 9.7 km/h 96 % 0 mm
13:14 10.6 °C 9.9 °C 1011.7 hPa SE 6.9 km/h 9.7 km/h 96 % 0.25 mm
13:16 10.5 °C 9.9 °C 1011.7 hPa East 5.8 km/h 11.1 km/h 96 % 0.25 mm
13:21 10.4 °C 9.8 °C 1011.4 hPa East 5 km/h 9.3 km/h 96 % 0.25 mm
13:26 10.4 °C 9.6 °C 1011.4 hPa East 5 km/h 8 km/h 95 % 0.51 mm
13:31 10.4 °C 9.8 °C 1011.4 hPa East 6.8 km/h 8 km/h 96 % 0.51 mm
13:36 10.3 °C 9.6 °C 1011.1 hPa East 5.3 km/h 9.3 km/h 95 % 0.76 mm
13:41 10.3 °C 9.7 °C 1011.1 hPa East 5 km/h 9.3 km/h 96 % 1.02 mm
13:46 10.3 °C 9.7 °C 1010.7 hPa ENE 3.9 km/h 7.4 km/h 96 % 1.02 mm
13:51 10.3 °C 9.7 °C 1010.7 hPa ENE 3.5 km/h 5.6 km/h 96 % 1.27 mm
13:56 10.4 °C 9.8 °C 1010.7 hPa ESE 6.8 km/h 9.3 km/h 96 % 1.52 mm
14:01 10.4 °C 9.8 °C 1010.7 hPa East 4.7 km/h 7.4 km/h 96 % 1.52 mm
14:06 10.4 °C 9.8 °C 1010.7 hPa ENE 4.8 km/h 11.1 km/h 96 % 1.78 mm
14:11 10.3 °C 9.7 °C 1010.7 hPa East 5.8 km/h 9.3 km/h 96 % 2.03 mm
14:16 10.4 °C 9.8 °C 1010.7 hPa East 4.8 km/h 9.3 km/h 96 % 2.03 mm
14:21 10.4 °C 9.8 °C 1010.4 hPa East 4.3 km/h 7.4 km/h 96 % 2.29 mm
14:26 10.3 °C 9.7 °C 1010.4 hPa East 7.2 km/h 9.7 km/h 96 % 2.29 mm
14:30 10.3 °C 9.7 °C 1010 hPa East 6.9 km/h 9.3 km/h 96 % 2.54 mm
14:35 10.3 °C 9.7 °C 1010 hPa East 5.3 km/h 7.4 km/h 96 % 2.54 mm
14:40 10.2 °C 9.6 °C 1010 hPa East 7.7 km/h 11.1 km/h 96 % 2.79 mm
14:45 10.2 °C 9.6 °C 1010 hPa East 7.6 km/h 11.3 km/h 96 % 2.79 mm
14:50 10.2 °C 9.6 °C 1009.7 hPa East 8.7 km/h 11.1 km/h 96 % 2.79 mm
14:55 10.2 °C 9.6 °C 1009.7 hPa East 9.8 km/h 13 km/h 96 % 2.54 mm
15:00 10.1 °C 9.5 °C 1009.7 hPa ENE 8.7 km/h 9.7 km/h 96 % 2.79 mm
15:05 10.1 °C 9.4 °C 1009.7 hPa East 7.9 km/h 11.3 km/h 96 % 2.79 mm
15:10 10.1 °C 9.6 °C 1009.7 hPa East 8 km/h 11.3 km/h 97 % 0 mm
15:15 10.1 °C 9.6 °C 1009.4 hPa East 10.6 km/h 13 km/h 97 % 2.54 mm
15:20 10 °C 9.6 °C 1009 hPa East 11.3 km/h 14.5 km/h 97 % 0.25 mm
15:25 10 °C 9.4 °C 1009 hPa East 9.7 km/h 14.5 km/h 96 % 0 mm
15:30 10 °C 9.6 °C 1009 hPa East 11.3 km/h 12.9 km/h 97 % 0 mm
15:36 10.1 °C 9.6 °C 1009 hPa East 8 km/h 12.9 km/h 97 % 0.25 mm
15:41 10.1 °C 9.6 °C 1009 hPa East 9.7 km/h 14.5 km/h 97 % 0 mm
15:46 10.1 °C 9.6 °C 1009.4 hPa East 8 km/h 12.9 km/h 97 % 0 mm
15:51 10 °C 9.6 °C 1009 hPa East 8 km/h 12.9 km/h 97 % 0 mm
15:56 9.8 °C 9.2 °C 1009 hPa East 8 km/h 16.1 km/h 96 % 0 mm
16:01 9.6 °C 8.9 °C 1009 hPa East 10.5 km/h 14.8 km/h 96 % 2.79 mm
16:06 9.4 °C 8.8 °C 1009.4 hPa East 11.9 km/h 16.7 km/h 96 % 2.79 mm
16:11 9.3 °C 8.7 °C 1009.4 hPa East 10.1 km/h 14.8 km/h 96 % 2.54 mm
16:16 9.2 °C 8.6 °C 1009.4 hPa East 10.9 km/h 14.8 km/h 96 % 2.54 mm
16:26 9.1 °C 8.4 °C 1009.4 hPa East 8.4 km/h 11.1 km/h 96 % 2.29 mm
16:31 9 °C 8.4 °C 1009.4 hPa East 6 km/h 13 km/h 96 % 2.03 mm
16:36 9 °C 8.4 °C 1009.4 hPa East 11.1 km/h 16.7 km/h 96 % 1.78 mm
16:41 8.9 °C 8.3 °C 1009 hPa ENE 8.5 km/h 18.5 km/h 96 % 1.78 mm
16:46 8.9 °C 8.3 °C 1009 hPa ENE 11.1 km/h 14.8 km/h 96 % 1.78 mm
16:51 8.9 °C 8.3 °C 1008.7 hPa East 10.1 km/h 18.5 km/h 96 % 2.03 mm
16:56 8.9 °C 8.3 °C 1008.7 hPa East 9.8 km/h 13 km/h 96 % 2.03 mm
17:00 8.9 °C 8.3 °C 1008.7 hPa East 12.4 km/h 20.4 km/h 96 % 2.29 mm
17:05 8.9 °C 8.3 °C 1008.4 hPa East 12.2 km/h 14.8 km/h 96 % 2.29 mm
17:10 8.9 °C 8.3 °C 1008.4 hPa NE 11.6 km/h 18.5 km/h 96 % 2.29 mm
17:12 8.8 °C 8.2 °C 1008.4 hPa East 12.4 km/h 24.1 km/h 96 % 2.29 mm
17:17 8.8 °C 8.2 °C 1008.4 hPa East 13.4 km/h 20.4 km/h 96 % 2.29 mm
17:22 8.8 °C 8.2 °C 1008.7 hPa ENE 12.2 km/h 18.5 km/h 96 % 2.29 mm
17:27 8.8 °C 8.2 °C 1008.7 hPa East 10.1 km/h 18.5 km/h 96 % 2.29 mm
17:32 8.9 °C 8.3 °C 1008.7 hPa ENE 13 km/h 18.5 km/h 96 % 2.03 mm
17:37 8.9 °C 8.3 °C 1008.7 hPa ENE 11.3 km/h 24.1 km/h 96 % 2.03 mm
17:42 8.8 °C 8.2 °C 1008.7 hPa ENE 17.9 km/h 25.9 km/h 96 % 2.03 mm
17:47 8.8 °C 8.2 °C 1008.4 hPa ENE 19 km/h 25.9 km/h 96 % 2.03 mm
17:52 8.7 °C 8.1 °C 1008.4 hPa ENE 14.6 km/h 27.8 km/h 96 % 2.03 mm
17:57 8.7 °C 8.1 °C 1008.4 hPa ENE 14.8 km/h 25.7 km/h 96 % 2.03 mm
18:02 8.7 °C 8.1 °C 1008.4 hPa NE 15.8 km/h 24.1 km/h 96 % 2.03 mm
18:07 8.6 °C 8 °C 1008.4 hPa ENE 24.3 km/h 31.5 km/h 96 % 2.03 mm
18:12 8.6 °C 7.9 °C 1008.4 hPa East 14.6 km/h 29.6 km/h 96 % 2.29 mm
18:17 8.5 °C 7.9 °C 1008.4 hPa NE 17.4 km/h 30.6 km/h 96 % 2.03 mm
18:22 8.5 °C 7.9 °C 1008.4 hPa East 15.3 km/h 24.1 km/h 96 % 2.29 mm
18:27 8.4 °C 7.8 °C 1008.4 hPa ENE 21.4 km/h 25.9 km/h 96 % 2.29 mm
18:32 8.5 °C 7.9 °C 1008.4 hPa ENE 18.7 km/h 25.7 km/h 96 % 2.29 mm
18:37 8.4 °C 7.8 °C 1008.4 hPa ENE 21.6 km/h 37 km/h 96 % 2.54 mm
18:42 8.4 °C 7.8 °C 1008 hPa ENE 17.1 km/h 29.6 km/h 96 % 2.54 mm
18:47 8.4 °C 7.8 °C 1008.4 hPa ENE 21.4 km/h 33.3 km/h 96 % 2.54 mm
18:52 8.3 °C 7.7 °C 1008 hPa ENE 21.6 km/h 35.2 km/h 96 % 2.79 mm
18:57 8.3 °C 7.7 °C 1008 hPa ENE 22.4 km/h 31.5 km/h 96 % 2.79 mm
19:02 8.2 °C 7.6 °C 1008 hPa ENE 20.8 km/h 37 km/h 96 % 3.05 mm
19:07 8.2 °C 7.6 °C 1008 hPa ENE 25.1 km/h 27.8 km/h 96 % 3.05 mm
19:12 8.2 °C 7.6 °C 1008 hPa ENE 23.7 km/h 41.8 km/h 96 % 3.05 mm
19:18 8.1 °C 7.4 °C 1008 hPa ENE 17.4 km/h 31.5 km/h 96 % 3.05 mm
19:23 8.1 °C 7.4 °C 1008 hPa East 19.5 km/h 24.1 km/h 96 % 3.3 mm
19:28 8.2 °C 7.8 °C 1008 hPa ENE 23 km/h 44.4 km/h 97 % 3.3 mm
19:33 8.1 °C 7.4 °C 1007.7 hPa ENE 20.6 km/h 29.6 km/h 96 % 3.56 mm
19:38 8 °C 7.4 °C 1007.7 hPa East 22.4 km/h 29.6 km/h 96 % 3.56 mm
19:43 8 °C 7.4 °C 1007.7 hPa ENE 24.1 km/h 38.9 km/h 96 % 3.56 mm
19:48 7.9 °C 7.3 °C 1007.7 hPa ENE 20.6 km/h 31.5 km/h 96 % 3.3 mm
19:53 7.9 °C 7.3 °C 1008 hPa NE 18.5 km/h 25.9 km/h 96 % 3.3 mm
19:58 7.9 °C 7.3 °C 1008 hPa ENE 18.5 km/h 27.8 km/h 96 % 3.3 mm
20:03 7.9 °C 7.5 °C 1008 hPa NE 14.3 km/h 22.5 km/h 97 % 3.05 mm
20:08 8 °C 7.4 °C 1008 hPa ENE 18.8 km/h 31.5 km/h 96 % 3.05 mm
20:13 7.9 °C 7.3 °C 1008 hPa ENE 19.3 km/h 25.9 km/h 96 % 3.05 mm
20:18 7.8 °C 7.2 °C 1008 hPa ENE 17.1 km/h 24.1 km/h 96 % 3.05 mm
20:23 7.9 °C 7.5 °C 1008 hPa ENE 19.5 km/h 33.3 km/h 97 % 3.05 mm
20:28 7.8 °C 7.2 °C 1007.7 hPa ENE 14 km/h 20.9 km/h 96 % 2.79 mm
20:33 7.9 °C 7.5 °C 1008 hPa East 16.6 km/h 20.9 km/h 97 % 2.79 mm
20:38 7.9 °C 7.3 °C 1008 hPa ENE 16.1 km/h 20.4 km/h 96 % 2.79 mm
20:43 8 °C 7.6 °C 1008 hPa NE 7.6 km/h 13 km/h 97 % 2.79 mm
20:47 8.1 °C 7.6 °C 1008 hPa ENE 15.4 km/h 25.7 km/h 97 % 2.79 mm
20:52 7.9 °C 7.3 °C 1008 hPa ENE 14.6 km/h 20.4 km/h 96 % 2.79 mm
20:57 7.8 °C 7.2 °C 1008 hPa East 14.5 km/h 20.4 km/h 96 % 2.54 mm
21:02 7.9 °C 7.5 °C 1008 hPa NNE 11.7 km/h 27.8 km/h 97 % 2.54 mm
21:07 8.1 °C 7.6 °C 1007.7 hPa NNE 14.5 km/h 25.7 km/h 97 % 2.54 mm
21:12 8.2 °C 7.7 °C 1007.7 hPa NE 12.9 km/h 18.5 km/h 97 % 2.29 mm
21:17 8.2 °C 7.7 °C 1007.7 hPa North 10.3 km/h 18.5 km/h 97 % 2.03 mm
21:22 8.2 °C 7.7 °C 1007.7 hPa North 15.4 km/h 18.5 km/h 97 % 2.03 mm
21:27 8.2 °C 7.7 °C 1007.7 hPa North 17.1 km/h 25.9 km/h 97 % 2.29 mm
21:32 8.2 °C 7.7 °C 1007.7 hPa NE 14.3 km/h 29.6 km/h 97 % 2.03 mm
21:38 8.2 °C 7.7 °C 1007.7 hPa NNE 10.3 km/h 25.7 km/h 97 % 2.03 mm
21:43 8.2 °C 7.7 °C 1007.7 hPa NE 14.5 km/h 31.5 km/h 97 % 1.78 mm
21:48 8.2 °C 7.7 °C 1007.7 hPa NNE 13.8 km/h 29.6 km/h 97 % 1.78 mm
21:53 8.1 °C 7.7 °C 1007.7 hPa NNE 15.6 km/h 22.2 km/h 97 % 1.52 mm
21:58 8.1 °C 7.6 °C 1007.3 hPa NE 12.4 km/h 31.5 km/h 97 % 1.78 mm
22:03 8 °C 7.6 °C 1007.3 hPa North 14.8 km/h 33.3 km/h 97 % 1.78 mm
22:08 7.9 °C 7.5 °C 1007.3 hPa NNE 21.1 km/h 31.5 km/h 97 % 1.78 mm
22:13 7.8 °C 7.4 °C 1007.3 hPa NNE 17.5 km/h 33.3 km/h 97 % 2.03 mm
22:18 7.8 °C 7.3 °C 1007.7 hPa NE 17.5 km/h 31.5 km/h 97 % 2.29 mm
22:23 7.7 °C 7.3 °C 1007.3 hPa North 14.6 km/h 31.5 km/h 97 % 2.29 mm
22:28 7.7 °C 7.3 °C 1007.7 hPa NNE 19.2 km/h 31.5 km/h 97 % 2.29 mm
22:33 7.7 °C 7.3 °C 1007.7 hPa NNE 20.3 km/h 33.3 km/h 97 % 2.29 mm
22:38 7.7 °C 7.2 °C 1007.7 hPa NNE 18 km/h 27.8 km/h 97 % 2.29 mm
22:43 7.7 °C 7.2 °C 1007.7 hPa NE 17.2 km/h 31.5 km/h 97 % 2.03 mm
22:48 7.7 °C 7.2 °C 1007.3 hPa North 15.6 km/h 22.2 km/h 97 % 2.29 mm
22:53 7.7 °C 7.2 °C 1007.7 hPa NNE 19.8 km/h 33.3 km/h 97 % 2.03 mm
22:58 7.7 °C 7.2 °C 1007.3 hPa North 24.6 km/h 38.9 km/h 97 % 2.03 mm
23:03 7.6 °C 7.2 °C 1007.3 hPa North 21.7 km/h 40.2 km/h 97 % 1.78 mm
23:08 7.7 °C 7.2 °C 1007.3 hPa ENE 19 km/h 33.8 km/h 97 % 1.52 mm
23:13 7.7 °C 7.2 °C 1007.3 hPa NE 17.5 km/h 33.8 km/h 97 % 1.27 mm
23:18 7.7 °C 7.3 °C 1007.3 hPa NNE 17.7 km/h 27.4 km/h 97 % 1.02 mm
23:23 7.8 °C 7.3 °C 1007 hPa ENE 12.6 km/h 31.5 km/h 97 % 1.02 mm
23:28 7.8 °C 7.4 °C 1007 hPa North 14 km/h 18.5 km/h 97 % 0.76 mm
23:33 7.8 °C 7.4 °C 1007 hPa East 19 km/h 27.8 km/h 97 % 0.76 mm
23:38 7.9 °C 7.4 °C 1007 hPa North 16.6 km/h 29 km/h 97 % 0.76 mm
23:43 7.9 °C 7.5 °C 1007 hPa North 14.6 km/h 24.1 km/h 97 % 1.02 mm
23:48 8 °C 7.6 °C 1006.7 hPa North 11.9 km/h 24.1 km/h 97 % 1.02 mm
23:53 8.1 °C 7.6 °C 1007 hPa North 13 km/h 32.2 km/h 97 % 1.02 mm
23:58 8.1 °C 7.7 °C 1007 hPa NNE 15.4 km/h 25.9 km/h 97 % 1.27 mm
Crab Meadow Weather
Compliments of Weather Underground - 3 mb

Script developed by  Jim McMurry - jmcmurry@mwt.net Adapted for the template by  Wim van der Kuil - Leuven-Template.eu

Weather Terms: Severe Thunderstorm Warning - A severe thunderstorm is indicated by Doppler radar or sighted by skywarn spotters. A severe thunderstorm contains large damaging hail, 1 inch diameter or larger, and/or damaging winds of around 60 mph or greater. These warnings are issued on a county by county basis by the local Weather Forecast Office in Upton.